sensor_id;sensor_type;location;lat;lon;timestamp;P1;durP1;ratioP1;P2;durP2;ratioP2
76962;SDS011;65902;51.452;7.198;2023-01-15T10:38:35;6.88;;;6.30;;
76962;SDS011;65902;51.452;7.198;2023-01-15T10:42:11;4.82;;;4.35;;
76962;SDS011;65902;51.452;7.198;2023-01-15T11:52:00;10.07;;;9.32;;
76962;SDS011;65902;51.452;7.198;2023-01-15T11:53:02;9.98;;;9.32;;
76962;SDS011;65902;51.452;7.198;2023-01-15T11:54:04;8.23;;;7.13;;
76962;SDS011;65902;51.452;7.198;2023-01-15T11:55:09;11.15;;;10.18;;
76962;SDS011;65902;51.452;7.198;2023-01-15T11:56:15;6.03;;;5.57;;
76962;SDS011;65902;51.452;7.198;2023-01-15T11:57:24;6.95;;;6.45;;
76962;SDS011;65902;51.452;7.198;2023-01-15T11:58:30;6.93;;;6.22;;
76962;SDS011;65902;51.452;7.198;2023-01-15T11:59:41;6.38;;;5.43;;
76962;SDS011;65902;51.452;7.198;2023-01-15T12:00:48;8.32;;;5.18;;
76962;SDS011;65902;51.452;7.198;2023-01-15T12:01:57;8.65;;;5.70;;
76962;SDS011;65902;51.452;7.198;2023-01-15T12:03:10;7.45;;;5.78;;
76962;SDS011;65902;51.452;7.198;2023-01-15T12:05:30;7.22;;;6.53;;
76962;SDS011;65902;51.452;7.198;2023-01-15T12:06:35;6.43;;;5.82;;
76962;SDS011;65902;51.452;7.198;2023-01-15T12:07:37;8.60;;;8.00;;
76962;SDS011;65902;51.452;7.198;2023-01-15T12:11:19;8.00;;;7.30;;
76962;SDS011;65902;51.452;7.198;2023-01-15T12:13:43;8.88;;;7.38;;
76962;SDS011;65902;51.452;7.198;2023-01-15T12:20:55;11.00;;;10.10;;
76962;SDS011;65902;51.452;7.198;2023-01-15T12:26:42;8.88;;;8.27;;
76962;SDS011;65902;51.452;7.198;2023-01-15T12:27:56;5.70;;;4.20;;
76962;SDS011;65902;51.452;7.198;2023-01-15T12:30:17;7.32;;;6.82;;
76962;SDS011;65902;51.452;7.198;2023-01-15T12:31:38;7.55;;;6.80;;
76962;SDS011;65902;51.452;7.198;2023-01-15T12:32:42;7.32;;;4.13;;
76962;SDS011;65902;51.452;7.198;2023-01-15T12:33:56;9.07;;;8.35;;
76962;SDS011;65902;51.452;7.198;2023-01-15T12:36:02;11.05;;;9.95;;
76962;SDS011;65902;51.452;7.198;2023-01-15T12:39:41;5.85;;;5.32;;
76962;SDS011;65902;51.452;7.198;2023-01-15T12:42:21;11.30;;;10.52;;
76962;SDS011;65902;51.452;7.198;2023-01-15T12:43:45;4.28;;;3.97;;
76962;SDS011;65902;51.452;7.198;2023-01-15T12:45:15;7.40;;;6.85;;
76962;SDS011;65902;51.452;7.198;2023-01-15T12:46:21;14.60;;;13.65;;
76962;SDS011;65902;51.452;7.198;2023-01-15T12:51:25;122.05;;;117.50;;
76962;SDS011;65902;51.452;7.198;2023-01-15T12:52:38;117.30;;;112.82;;
76962;SDS011;65902;51.452;7.198;2023-01-15T12:53:51;137.63;;;132.18;;
76962;SDS011;65902;51.452;7.198;2023-01-15T12:56:21;107.45;;;103.13;;
76962;SDS011;65902;51.452;7.198;2023-01-15T12:57:44;14.35;;;13.57;;
76962;SDS011;65902;51.452;7.198;2023-01-15T12:58:51;19.85;;;18.95;;
76962;SDS011;65902;51.452;7.198;2023-01-15T12:59:59;9.30;;;8.70;;
76962;SDS011;65902;51.452;7.198;2023-01-15T13:01:05;18.25;;;17.15;;
76962;SDS011;65902;51.452;7.198;2023-01-15T13:04:14;53.60;;;51.20;;
76962;SDS011;65902;51.452;7.198;2023-01-15T13:05:35;36.65;;;34.92;;
76962;SDS011;65902;51.452;7.198;2023-01-15T13:06:18;18.58;;;17.65;;
76962;SDS011;65902;51.452;7.198;2023-01-15T13:08:28;14.23;;;13.10;;
76962;SDS011;65902;51.452;7.198;2023-01-15T13:09:49;10.68;;;10.07;;
76962;SDS011;65902;51.452;7.198;2023-01-15T13:10:53;13.15;;;11.85;;
76962;SDS011;65902;51.452;7.198;2023-01-15T13:11:54;8.30;;;7.47;;
76962;SDS011;65902;51.452;7.198;2023-01-15T13:12:57;6.18;;;5.75;;
76962;SDS011;65902;51.452;7.198;2023-01-15T13:14:01;7.72;;;7.05;;
76962;SDS011;65902;51.452;7.198;2023-01-15T13:15:02;7.45;;;6.85;;
76962;SDS011;65902;51.452;7.198;2023-01-15T13:20:44;7.10;;;5.35;;
76962;SDS011;65902;51.452;7.198;2023-01-15T13:21:47;8.75;;;7.68;;
76962;SDS011;65902;51.452;7.198;2023-01-15T13:23:05;8.75;;;8.18;;
76962;SDS011;65902;51.452;7.198;2023-01-15T13:24:17;3.88;;;3.25;;
76962;SDS011;65902;51.452;7.198;2023-01-15T13:27:55;6.00;;;5.43;;
76962;SDS011;65902;51.452;7.198;2023-01-15T13:29:17;7.57;;;5.22;;
76962;SDS011;65902;51.452;7.198;2023-01-15T13:33:11;5.75;;;5.22;;
76962;SDS011;65902;51.452;7.198;2023-01-15T13:36:13;7.20;;;6.72;;
76962;SDS011;65902;51.452;7.198;2023-01-15T13:37:22;9.00;;;8.40;;
76962;SDS011;65902;51.452;7.198;2023-01-15T13:38:28;9.18;;;8.43;;
76962;SDS011;65902;51.452;7.198;2023-01-15T13:39:37;4.32;;;3.17;;
76962;SDS011;65902;51.452;7.198;2023-01-15T13:40:42;8.57;;;7.88;;
76962;SDS011;65902;51.452;7.198;2023-01-15T13:41:50;7.10;;;6.63;;
76962;SDS011;65902;51.452;7.198;2023-01-15T13:43:18;5.65;;;5.25;;
76962;SDS011;65902;51.452;7.198;2023-01-15T13:44:23;6.25;;;5.68;;
76962;SDS011;65902;51.452;7.198;2023-01-15T13:45:32;7.60;;;7.07;;
76962;SDS011;65902;51.452;7.198;2023-01-15T13:46:36;5.90;;;5.50;;
76962;SDS011;65902;51.452;7.198;2023-01-15T13:47:37;6.32;;;4.70;;
76962;SDS011;65902;51.452;7.198;2023-01-15T13:48:45;5.00;;;4.55;;
76962;SDS011;65902;51.452;7.198;2023-01-15T13:49:53;6.50;;;5.93;;
76962;SDS011;65902;51.452;7.198;2023-01-15T13:50:59;8.07;;;5.82;;
76962;SDS011;65902;51.452;7.198;2023-01-15T13:53:05;6.70;;;6.18;;
76962;SDS011;65902;51.452;7.198;2023-01-15T13:54:25;6.43;;;5.85;;
76962;SDS011;65902;51.452;7.198;2023-01-15T13:55:31;7.13;;;6.15;;
76962;SDS011;65902;51.452;7.198;2023-01-15T13:56:33;7.38;;;6.63;;
76962;SDS011;65902;51.452;7.198;2023-01-15T13:57:39;6.97;;;6.38;;
76962;SDS011;65902;51.452;7.198;2023-01-15T13:58:51;7.18;;;6.63;;
76962;SDS011;65902;51.452;7.198;2023-01-15T13:59:53;4.35;;;4.05;;
76962;SDS011;65902;51.452;7.198;2023-01-15T14:01:08;5.50;;;4.03;;
76962;SDS011;65902;51.452;7.198;2023-01-15T14:02:28;9.65;;;9.07;;
76962;SDS011;65902;51.452;7.198;2023-01-15T14:03:36;4.90;;;4.50;;
76962;SDS011;65902;51.452;7.198;2023-01-15T14:04:40;5.60;;;5.20;;
76962;SDS011;65902;51.452;7.198;2023-01-15T14:05:41;7.32;;;6.70;;
76962;SDS011;65902;51.452;7.198;2023-01-15T14:06:42;7.25;;;6.63;;
76962;SDS011;65902;51.452;7.198;2023-01-15T14:07:47;8.60;;;7.93;;
76962;SDS011;65902;51.452;7.198;2023-01-15T14:08:50;6.88;;;6.45;;
76962;SDS011;65902;51.452;7.198;2023-01-15T14:09:51;5.70;;;5.07;;
76962;SDS011;65902;51.452;7.198;2023-01-15T14:10:54;7.00;;;6.47;;
76962;SDS011;65902;51.452;7.198;2023-01-15T14:13:27;7.05;;;3.38;;
76962;SDS011;65902;51.452;7.198;2023-01-15T14:18:51;8.93;;;8.43;;
76962;SDS011;65902;51.452;7.198;2023-01-15T14:19:56;7.18;;;6.65;;
76962;SDS011;65902;51.452;7.198;2023-01-15T14:22:33;9.07;;;8.52;;
76962;SDS011;65902;51.452;7.198;2023-01-15T14:23:43;9.85;;;9.35;;
76962;SDS011;65902;51.452;7.198;2023-01-15T14:32:10;7.97;;;7.47;;
76962;SDS011;65902;51.452;7.198;2023-01-15T14:33:26;8.07;;;7.43;;
76962;SDS011;65902;51.452;7.198;2023-01-15T14:34:35;7.05;;;6.35;;
76962;SDS011;65902;51.452;7.198;2023-01-15T14:35:36;8.80;;;7.07;;
76962;SDS011;65902;51.452;7.198;2023-01-15T14:38:01;7.50;;;6.85;;
76962;SDS011;65902;51.452;7.198;2023-01-15T14:39:17;6.60;;;6.10;;
76962;SDS011;65902;51.452;7.198;2023-01-15T14:40:30;6.80;;;5.97;;
76962;SDS011;65902;51.452;7.198;2023-01-15T14:41:33;7.85;;;7.45;;
76962;SDS011;65902;51.452;7.198;2023-01-15T14:43:00;4.80;;;3.85;;
76962;SDS011;65902;51.452;7.198;2023-01-15T14:44:08;8.55;;;7.72;;
76962;SDS011;65902;51.452;7.198;2023-01-15T14:47:26;6.07;;;5.72;;
76962;SDS011;65902;51.452;7.198;2023-01-15T14:48:36;6.88;;;6.38;;
76962;SDS011;65902;51.452;7.198;2023-01-15T14:49:42;9.93;;;9.27;;
76962;SDS011;65902;51.452;7.198;2023-01-15T14:50:48;6.35;;;5.95;;
76962;SDS011;65902;51.452;7.198;2023-01-15T14:51:53;5.55;;;5.15;;
76962;SDS011;65902;51.452;7.198;2023-01-15T14:52:55;6.57;;;6.13;;
76962;SDS011;65902;51.452;7.198;2023-01-15T14:54:10;7.63;;;7.13;;
76962;SDS011;65902;51.452;7.198;2023-01-15T14:55:15;6.57;;;5.97;;
76962;SDS011;65902;51.452;7.198;2023-01-15T14:56:18;5.07;;;4.68;;
76962;SDS011;65902;51.452;7.198;2023-01-15T14:57:23;7.55;;;5.40;;
76962;SDS011;65902;51.452;7.198;2023-01-15T15:01:06;7.70;;;7.20;;
76962;SDS011;65902;51.452;7.198;2023-01-15T15:03:36;5.22;;;4.82;;
76962;SDS011;65902;51.452;7.198;2023-01-15T15:04:51;7.70;;;6.95;;
76962;SDS011;65902;51.452;7.198;2023-01-15T15:05:54;7.15;;;6.65;;
76962;SDS011;65902;51.452;7.198;2023-01-15T15:08:08;4.70;;;4.28;;
76962;SDS011;65902;51.452;7.198;2023-01-15T15:09:11;7.97;;;7.28;;
76962;SDS011;65902;51.452;7.198;2023-01-15T15:11:28;9.15;;;8.60;;
76962;SDS011;65902;51.452;7.198;2023-01-15T15:14:14;5.97;;;5.47;;
76962;SDS011;65902;51.452;7.198;2023-01-15T15:15:17;7.13;;;6.70;;
76962;SDS011;65902;51.452;7.198;2023-01-15T15:16:18;4.35;;;4.05;;
76962;SDS011;65902;51.452;7.198;2023-01-15T15:17:34;4.72;;;4.32;;
76962;SDS011;65902;51.452;7.198;2023-01-15T15:18:41;10.18;;;9.63;;
76962;SDS011;65902;51.452;7.198;2023-01-15T15:19:46;6.45;;;6.05;;
76962;SDS011;65902;51.452;7.198;2023-01-15T15:22:14;11.65;;;11.02;;
76962;SDS011;65902;51.452;7.198;2023-01-15T15:24:39;10.52;;;9.88;;
76962;SDS011;65902;51.452;7.198;2023-01-15T15:25:51;8.00;;;7.35;;
76962;SDS011;65902;51.452;7.198;2023-01-15T15:26:55;9.20;;;8.43;;
76962;SDS011;65902;51.452;7.198;2023-01-15T15:28:02;6.68;;;4.72;;
76962;SDS011;65902;51.452;7.198;2023-01-15T15:30:09;8.00;;;7.50;;
76962;SDS011;65902;51.452;7.198;2023-01-15T15:31:18;6.63;;;6.03;;
76962;SDS011;65902;51.452;7.198;2023-01-15T15:32:20;7.28;;;6.68;;
76962;SDS011;65902;51.452;7.198;2023-01-15T15:33:23;6.97;;;5.70;;
76962;SDS011;65902;51.452;7.198;2023-01-15T15:35:27;6.63;;;6.07;;
76962;SDS011;65902;51.452;7.198;2023-01-15T15:36:32;6.75;;;6.15;;
76962;SDS011;65902;51.452;7.198;2023-01-15T15:37:35;7.80;;;7.10;;
76962;SDS011;65902;51.452;7.198;2023-01-15T15:38:36;5.20;;;3.83;;
76962;SDS011;65902;51.452;7.198;2023-01-15T15:39:44;6.00;;;5.50;;
76962;SDS011;65902;51.452;7.198;2023-01-15T15:40:55;6.60;;;6.20;;
76962;SDS011;65902;51.452;7.198;2023-01-15T15:42:01;5.45;;;5.05;;
76962;SDS011;65902;51.452;7.198;2023-01-15T15:45:18;6.78;;;6.22;;
76962;SDS011;65902;51.452;7.198;2023-01-15T15:46:38;7.05;;;6.55;;
76962;SDS011;65902;51.452;7.198;2023-01-15T15:48:15;5.93;;;5.45;;
76962;SDS011;65902;51.452;7.198;2023-01-15T15:49:38;7.43;;;6.72;;
76962;SDS011;65902;51.452;7.198;2023-01-15T15:50:39;7.45;;;6.72;;
76962;SDS011;65902;51.452;7.198;2023-01-15T15:52:48;5.35;;;4.85;;
76962;SDS011;65902;51.452;7.198;2023-01-15T15:53:49;6.30;;;5.97;;
76962;SDS011;65902;51.452;7.198;2023-01-15T15:54:57;4.72;;;4.43;;
76962;SDS011;65902;51.452;7.198;2023-01-15T15:56:05;5.03;;;4.50;;
76962;SDS011;65902;51.452;7.198;2023-01-15T15:57:16;8.77;;;7.93;;
76962;SDS011;65902;51.452;7.198;2023-01-15T15:58:21;8.23;;;7.63;;
76962;SDS011;65902;51.452;7.198;2023-01-15T15:59:32;7.78;;;7.18;;
76962;SDS011;65902;51.452;7.198;2023-01-15T16:00:38;7.70;;;7.20;;
76962;SDS011;65902;51.452;7.198;2023-01-15T16:01:41;7.47;;;6.82;;
76962;SDS011;65902;51.452;7.198;2023-01-15T16:02:41;6.18;;;5.75;;
76962;SDS011;65902;51.452;7.198;2023-01-15T16:04:48;6.72;;;6.32;;
76962;SDS011;65902;51.452;7.198;2023-01-15T16:05:54;7.95;;;7.20;;
76962;SDS011;65902;51.452;7.198;2023-01-15T16:06:58;7.13;;;6.20;;
76962;SDS011;65902;51.452;7.198;2023-01-15T16:09:21;5.50;;;4.93;;
76962;SDS011;65902;51.452;7.198;2023-01-15T16:10:29;7.18;;;6.57;;
76962;SDS011;65902;51.452;7.198;2023-01-15T16:11:31;6.38;;;5.88;;
76962;SDS011;65902;51.452;7.198;2023-01-15T16:12:42;5.90;;;5.22;;
76962;SDS011;65902;51.452;7.198;2023-01-15T16:13:49;7.00;;;6.55;;
76962;SDS011;65902;51.452;7.198;2023-01-15T16:14:54;7.85;;;7.13;;
76962;SDS011;65902;51.452;7.198;2023-01-15T16:15:55;7.32;;;6.82;;
76962;SDS011;65902;51.452;7.198;2023-01-15T16:16:57;6.78;;;4.45;;
76962;SDS011;65902;51.452;7.198;2023-01-15T16:17:59;6.53;;;5.45;;
76962;SDS011;65902;51.452;7.198;2023-01-15T16:19:01;5.30;;;4.70;;
76962;SDS011;65902;51.452;7.198;2023-01-15T16:20:05;6.72;;;6.13;;
76962;SDS011;65902;51.452;7.198;2023-01-15T16:21:16;7.10;;;6.50;;
76962;SDS011;65902;51.452;7.198;2023-01-15T16:22:19;6.38;;;5.90;;
76962;SDS011;65902;51.452;7.198;2023-01-15T16:23:24;6.43;;;5.53;;
76962;SDS011;65902;51.452;7.198;2023-01-15T16:24:28;5.45;;;4.63;;
76962;SDS011;65902;51.452;7.198;2023-01-15T16:25:33;9.25;;;8.75;;
76962;SDS011;65902;51.452;7.198;2023-01-15T16:26:46;6.65;;;5.95;;
76962;SDS011;65902;51.452;7.198;2023-01-15T16:27:58;6.45;;;6.05;;
76962;SDS011;65902;51.452;7.198;2023-01-15T16:29:00;6.72;;;6.22;;
76962;SDS011;65902;51.452;7.198;2023-01-15T16:30:11;7.65;;;6.90;;
76962;SDS011;65902;51.452;7.198;2023-01-15T16:31:14;8.32;;;4.13;;
76962;SDS011;65902;51.452;7.198;2023-01-15T16:32:29;8.18;;;7.35;;
76962;SDS011;65902;51.452;7.198;2023-01-15T16:34:34;12.43;;;11.82;;
76962;SDS011;65902;51.452;7.198;2023-01-15T16:35:36;10.73;;;10.02;;
76962;SDS011;65902;51.452;7.198;2023-01-15T16:36:40;7.68;;;7.10;;
76962;SDS011;65902;51.452;7.198;2023-01-15T16:37:44;7.35;;;6.75;;
76962;SDS011;65902;51.452;7.198;2023-01-15T16:38:49;6.18;;;5.68;;
76962;SDS011;65902;51.452;7.198;2023-01-15T16:39:50;6.53;;;6.10;;
76962;SDS011;65902;51.452;7.198;2023-01-15T16:40:51;8.98;;;8.38;;
76962;SDS011;65902;51.452;7.198;2023-01-15T16:41:55;9.15;;;8.55;;
76962;SDS011;65902;51.452;7.198;2023-01-15T16:45:17;10.45;;;9.68;;
76962;SDS011;65902;51.452;7.198;2023-01-15T16:47:25;8.07;;;5.25;;
76962;SDS011;65902;51.452;7.198;2023-01-15T16:48:34;3.47;;;3.05;;
76962;SDS011;65902;51.452;7.198;2023-01-15T16:50:40;6.60;;;6.10;;
76962;SDS011;65902;51.452;7.198;2023-01-15T16:51:42;5.78;;;5.38;;
76962;SDS011;65902;51.452;7.198;2023-01-15T16:53:43;7.25;;;6.63;;
76962;SDS011;65902;51.452;7.198;2023-01-15T16:54:44;7.30;;;6.80;;
76962;SDS011;65902;51.452;7.198;2023-01-15T16:55:48;9.35;;;8.75;;
76962;SDS011;65902;51.452;7.198;2023-01-15T16:56:55;7.95;;;7.28;;
76962;SDS011;65902;51.452;7.198;2023-01-15T17:00:49;8.13;;;7.72;;
76962;SDS011;65902;51.452;7.198;2023-01-15T17:03:01;6.20;;;5.70;;
76962;SDS011;65902;51.452;7.198;2023-01-15T17:04:14;6.10;;;5.50;;
76962;SDS011;65902;51.452;7.198;2023-01-15T17:05:31;5.63;;;5.22;;
76962;SDS011;65902;51.452;7.198;2023-01-15T17:06:32;6.20;;;4.72;;
76962;SDS011;65902;51.452;7.198;2023-01-15T17:07:35;11.43;;;10.55;;
76962;SDS011;65902;51.452;7.198;2023-01-15T17:08:39;7.00;;;6.43;;
76962;SDS011;65902;51.452;7.198;2023-01-15T17:09:44;6.00;;;5.13;;
76962;SDS011;65902;51.452;7.198;2023-01-15T17:10:53;7.68;;;7.18;;
76962;SDS011;65902;51.452;7.198;2023-01-15T17:11:55;7.47;;;6.88;;
76962;SDS011;65902;51.452;7.198;2023-01-15T17:12:56;5.30;;;4.90;;
76962;SDS011;65902;51.452;7.198;2023-01-15T17:18:26;6.82;;;6.22;;
76962;SDS011;65902;51.452;7.198;2023-01-15T17:19:27;4.53;;;4.22;;
76962;SDS011;65902;51.452;7.198;2023-01-15T17:20:28;7.32;;;6.85;;
76962;SDS011;65902;51.452;7.198;2023-01-15T17:21:33;6.38;;;5.97;;
76962;SDS011;65902;51.452;7.198;2023-01-15T17:22:36;9.48;;;5.82;;
76962;SDS011;65902;51.452;7.198;2023-01-15T17:23:38;6.53;;;5.22;;
76962;SDS011;65902;51.452;7.198;2023-01-15T17:24:50;4.53;;;4.13;;
76962;SDS011;65902;51.452;7.198;2023-01-15T17:25:52;4.78;;;4.38;;
76962;SDS011;65902;51.452;7.198;2023-01-15T17:26:56;4.10;;;3.80;;
76962;SDS011;65902;51.452;7.198;2023-01-15T17:28:00;7.28;;;6.53;;
76962;SDS011;65902;51.452;7.198;2023-01-15T17:29:03;7.97;;;7.38;;
76962;SDS011;65902;51.452;7.198;2023-01-15T17:30:04;7.93;;;7.38;;
76962;SDS011;65902;51.452;7.198;2023-01-15T17:31:07;5.78;;;5.25;;
76962;SDS011;65902;51.452;7.198;2023-01-15T17:32:32;6.85;;;6.45;;
76962;SDS011;65902;51.452;7.198;2023-01-15T17:33:39;5.53;;;5.13;;
76962;SDS011;65902;51.452;7.198;2023-01-15T17:34:41;10.63;;;9.93;;
76962;SDS011;65902;51.452;7.198;2023-01-15T17:35:42;5.95;;;5.50;;
76962;SDS011;65902;51.452;7.198;2023-01-15T17:36:47;6.55;;;6.15;;
76962;SDS011;65902;51.452;7.198;2023-01-15T17:37:48;7.50;;;6.90;;
76962;SDS011;65902;51.452;7.198;2023-01-15T17:38:49;7.80;;;7.22;;
76962;SDS011;65902;51.452;7.198;2023-01-15T17:39:50;11.73;;;11.02;;
76962;SDS011;65902;51.452;7.198;2023-01-15T17:40:51;4.10;;;3.70;;
76962;SDS011;65902;51.452;7.198;2023-01-15T17:41:57;7.07;;;6.68;;
76962;SDS011;65902;51.452;7.198;2023-01-15T17:43:01;6.10;;;5.50;;
76962;SDS011;65902;51.452;7.198;2023-01-15T17:44:02;4.63;;;4.20;;
76962;SDS011;65902;51.452;7.198;2023-01-15T17:45:03;7.03;;;6.57;;
76962;SDS011;65902;51.452;7.198;2023-01-15T17:46:04;6.97;;;6.38;;
76962;SDS011;65902;51.452;7.198;2023-01-15T17:47:08;5.85;;;4.28;;
76962;SDS011;65902;51.452;7.198;2023-01-15T17:48:11;2.88;;;2.67;;
76962;SDS011;65902;51.452;7.198;2023-01-15T17:49:12;5.28;;;4.82;;
76962;SDS011;65902;51.452;7.198;2023-01-15T17:50:14;6.13;;;5.72;;
76962;SDS011;65902;51.452;7.198;2023-01-15T17:51:15;5.35;;;4.95;;
76962;SDS011;65902;51.452;7.198;2023-01-15T17:52:17;7.30;;;6.72;;
76962;SDS011;65902;51.452;7.198;2023-01-15T17:53:18;6.30;;;5.78;;
76962;SDS011;65902;51.452;7.198;2023-01-15T17:54:21;6.82;;;6.18;;
76962;SDS011;65902;51.452;7.198;2023-01-15T17:55:41;7.78;;;7.05;;
76962;SDS011;65902;51.452;7.198;2023-01-15T17:57:01;5.88;;;4.32;;
76962;SDS011;65902;51.452;7.198;2023-01-15T17:58:20;3.33;;;2.05;;
76962;SDS011;65902;51.452;7.198;2023-01-15T17:59:39;3.58;;;2.40;;
76962;SDS011;65902;51.452;7.198;2023-01-15T18:00:59;4.88;;;4.53;;
76962;SDS011;65902;51.452;7.198;2023-01-15T18:02:21;7.03;;;6.40;;
76962;SDS011;65902;51.452;7.198;2023-01-15T18:03:42;4.97;;;4.57;;
76962;SDS011;65902;51.452;7.198;2023-01-15T18:05:04;4.80;;;4.00;;
76962;SDS011;65902;51.452;7.198;2023-01-15T18:06:26;5.35;;;4.93;;
76962;SDS011;65902;51.452;7.198;2023-01-15T18:07:30;6.18;;;5.78;;
76962;SDS011;65902;51.452;7.198;2023-01-15T18:08:33;10.30;;;9.63;;
76962;SDS011;65902;51.452;7.198;2023-01-15T18:09:34;6.00;;;5.43;;
76962;SDS011;65902;51.452;7.198;2023-01-15T18:10:37;6.53;;;5.70;;
76962;SDS011;65902;51.452;7.198;2023-01-15T18:11:38;6.97;;;5.15;;
76962;SDS011;65902;51.452;7.198;2023-01-15T18:12:39;7.38;;;6.70;;
76962;SDS011;65902;51.452;7.198;2023-01-15T18:13:44;7.97;;;7.35;;
76962;SDS011;65902;51.452;7.198;2023-01-15T18:14:50;6.65;;;6.15;;
76962;SDS011;65902;51.452;7.198;2023-01-15T18:15:51;5.65;;;5.25;;
76962;SDS011;65902;51.452;7.198;2023-01-15T18:16:52;6.95;;;5.88;;
76962;SDS011;65902;51.452;7.198;2023-01-15T18:17:55;7.07;;;6.40;;
76962;SDS011;65902;51.452;7.198;2023-01-15T18:18:56;5.75;;;4.88;;
76962;SDS011;65902;51.452;7.198;2023-01-15T18:19:59;5.85;;;5.03;;
76962;SDS011;65902;51.452;7.198;2023-01-15T18:21:00;6.28;;;5.75;;
76962;SDS011;65902;51.452;7.198;2023-01-15T18:22:04;5.57;;;5.18;;
76962;SDS011;65902;51.452;7.198;2023-01-15T18:23:05;9.80;;;9.10;;
76962;SDS011;65902;51.452;7.198;2023-01-15T18:24:07;7.18;;;6.68;;
76962;SDS011;65902;51.452;7.198;2023-01-15T18:25:09;5.82;;;4.25;;
76962;SDS011;65902;51.452;7.198;2023-01-15T18:26:13;6.38;;;5.88;;
76962;SDS011;65902;51.452;7.198;2023-01-15T18:27:16;7.88;;;7.45;;
76962;SDS011;65902;51.452;7.198;2023-01-15T18:28:17;6.65;;;6.25;;
76962;SDS011;65902;51.452;7.198;2023-01-15T18:29:20;8.32;;;7.68;;
76962;SDS011;65902;51.452;7.198;2023-01-15T18:30:21;6.90;;;6.40;;
76962;SDS011;65902;51.452;7.198;2023-01-15T18:31:24;6.20;;;5.68;;
76962;SDS011;65902;51.452;7.198;2023-01-15T18:33:29;5.32;;;4.93;;
76962;SDS011;65902;51.452;7.198;2023-01-15T18:34:30;5.90;;;5.50;;
76962;SDS011;65902;51.452;7.198;2023-01-15T18:36:34;8.10;;;7.68;;
76962;SDS011;65902;51.452;7.198;2023-01-15T18:37:38;6.93;;;6.22;;
76962;SDS011;65902;51.452;7.198;2023-01-15T18:38:41;7.05;;;6.65;;
76962;SDS011;65902;51.452;7.198;2023-01-15T18:39:47;7.75;;;7.15;;
76962;SDS011;65902;51.452;7.198;2023-01-15T18:40:50;5.30;;;4.93;;
76962;SDS011;65902;51.452;7.198;2023-01-15T18:42:04;8.30;;;7.78;;
76962;SDS011;65902;51.452;7.198;2023-01-15T18:43:05;7.43;;;6.95;;
76962;SDS011;65902;51.452;7.198;2023-01-15T18:44:25;9.05;;;8.43;;
76962;SDS011;65902;51.452;7.198;2023-01-15T18:45:47;7.10;;;6.63;;
76962;SDS011;65902;51.452;7.198;2023-01-15T18:47:11;6.38;;;5.97;;
76962;SDS011;65902;51.452;7.198;2023-01-15T18:48:13;7.70;;;7.15;;
76962;SDS011;65902;51.452;7.198;2023-01-15T18:49:14;7.70;;;6.93;;
76962;SDS011;65902;51.452;7.198;2023-01-15T18:50:27;7.07;;;6.53;;
76962;SDS011;65902;51.452;7.198;2023-01-15T18:51:31;7.65;;;6.55;;
76962;SDS011;65902;51.452;7.198;2023-01-15T18:53:51;6.05;;;5.65;;
76962;SDS011;65902;51.452;7.198;2023-01-15T18:54:53;10.18;;;9.57;;
76962;SDS011;65902;51.452;7.198;2023-01-15T18:56:02;5.93;;;5.45;;
76962;SDS011;65902;51.452;7.198;2023-01-15T18:57:05;3.20;;;2.90;;
76962;SDS011;65902;51.452;7.198;2023-01-15T18:58:05;13.70;;;12.82;;
76962;SDS011;65902;51.452;7.198;2023-01-15T18:59:16;5.38;;;4.97;;
76962;SDS011;65902;51.452;7.198;2023-01-15T19:00:17;13.38;;;12.43;;
76962;SDS011;65902;51.452;7.198;2023-01-15T19:01:21;9.98;;;9.15;;
76962;SDS011;65902;51.452;7.198;2023-01-15T19:02:22;5.18;;;4.70;;
76962;SDS011;65902;51.452;7.198;2023-01-15T19:03:25;7.63;;;7.03;;
76962;SDS011;65902;51.452;7.198;2023-01-15T19:04:27;7.82;;;7.25;;
76962;SDS011;65902;51.452;7.198;2023-01-15T19:05:29;7.00;;;6.60;;
76962;SDS011;65902;51.452;7.198;2023-01-15T19:06:32;7.35;;;6.70;;
76962;SDS011;65902;51.452;7.198;2023-01-15T19:07:34;7.55;;;7.00;;
76962;SDS011;65902;51.452;7.198;2023-01-15T19:08:35;8.77;;;8.13;;
76962;SDS011;65902;51.452;7.198;2023-01-15T19:09:38;9.45;;;8.60;;
76962;SDS011;65902;51.452;7.198;2023-01-15T19:10:41;7.47;;;6.88;;
76962;SDS011;65902;51.452;7.198;2023-01-15T19:11:42;7.40;;;6.80;;
76962;SDS011;65902;51.452;7.198;2023-01-15T19:12:46;8.00;;;7.35;;
76962;SDS011;65902;51.452;7.198;2023-01-15T19:13:47;9.00;;;8.32;;
76962;SDS011;65902;51.452;7.198;2023-01-15T19:15:15;9.00;;;8.50;;
76962;SDS011;65902;51.452;7.198;2023-01-15T19:16:35;9.18;;;8.65;;
76962;SDS011;65902;51.452;7.198;2023-01-15T19:17:56;6.40;;;5.90;;
76962;SDS011;65902;51.452;7.198;2023-01-15T19:19:16;10.80;;;9.90;;
76962;SDS011;65902;51.452;7.198;2023-01-15T19:20:17;7.68;;;7.07;;
76962;SDS011;65902;51.452;7.198;2023-01-15T19:21:19;8.82;;;4.63;;
76962;SDS011;65902;51.452;7.198;2023-01-15T19:22:20;6.75;;;6.18;;
76962;SDS011;65902;51.452;7.198;2023-01-15T19:23:42;10.23;;;9.43;;
76962;SDS011;65902;51.452;7.198;2023-01-15T19:24:45;7.60;;;6.45;;
76962;SDS011;65902;51.452;7.198;2023-01-15T19:25:46;8.35;;;7.80;;
76962;SDS011;65902;51.452;7.198;2023-01-15T19:26:50;6.93;;;6.40;;
76962;SDS011;65902;51.452;7.198;2023-01-15T19:27:54;9.00;;;8.30;;
76962;SDS011;65902;51.452;7.198;2023-01-15T19:28:59;9.13;;;7.88;;
76962;SDS011;65902;51.452;7.198;2023-01-15T19:30:03;7.72;;;7.00;;
76962;SDS011;65902;51.452;7.198;2023-01-15T19:31:09;12.15;;;11.35;;
76962;SDS011;65902;51.452;7.198;2023-01-15T19:32:30;8.50;;;6.28;;
76962;SDS011;65902;51.452;7.198;2023-01-15T19:33:39;9.38;;;8.70;;
76962;SDS011;65902;51.452;7.198;2023-01-15T19:34:40;8.80;;;8.30;;
76962;SDS011;65902;51.452;7.198;2023-01-15T19:35:41;9.35;;;8.55;;
76962;SDS011;65902;51.452;7.198;2023-01-15T19:36:45;9.07;;;8.48;;
76962;SDS011;65902;51.452;7.198;2023-01-15T19:37:46;8.60;;;7.93;;
76962;SDS011;65902;51.452;7.198;2023-01-15T19:38:47;8.35;;;6.32;;
76962;SDS011;65902;51.452;7.198;2023-01-15T19:39:55;8.65;;;8.05;;
76962;SDS011;65902;51.452;7.198;2023-01-15T19:40:58;11.32;;;10.52;;
76962;SDS011;65902;51.452;7.198;2023-01-15T19:42:19;10.85;;;10.18;;
76962;SDS011;65902;51.452;7.198;2023-01-15T19:43:39;16.42;;;15.60;;
76962;SDS011;65902;51.452;7.198;2023-01-15T19:44:58;4.53;;;4.20;;
76962;SDS011;65902;51.452;7.198;2023-01-15T19:46:17;11.75;;;9.13;;
76962;SDS011;65902;51.452;7.198;2023-01-15T19:47:37;6.88;;;6.28;;
76962;SDS011;65902;51.452;7.198;2023-01-15T19:49:04;7.15;;;6.43;;
76962;SDS011;65902;51.452;7.198;2023-01-15T19:50:38;9.30;;;3.92;;
76962;SDS011;65902;51.452;7.198;2023-01-15T19:51:47;8.90;;;8.00;;
76962;SDS011;65902;51.452;7.198;2023-01-15T19:53:10;10.02;;;8.98;;
76962;SDS011;65902;51.452;7.198;2023-01-15T19:54:14;8.55;;;7.78;;
76962;SDS011;65902;51.452;7.198;2023-01-15T19:55:41;8.57;;;7.85;;
76962;SDS011;65902;51.452;7.198;2023-01-15T19:56:46;10.30;;;8.10;;
76962;SDS011;65902;51.452;7.198;2023-01-15T19:57:57;11.82;;;8.57;;
76962;SDS011;65902;51.452;7.198;2023-01-15T19:59:06;8.63;;;7.95;;
76962;SDS011;65902;51.452;7.198;2023-01-15T20:00:09;9.70;;;9.02;;
76962;SDS011;65902;51.452;7.198;2023-01-15T20:01:14;10.32;;;9.68;;
76962;SDS011;65902;51.452;7.198;2023-01-15T20:02:20;7.47;;;6.72;;
76962;SDS011;65902;51.452;7.198;2023-01-15T20:03:21;8.55;;;7.95;;
76962;SDS011;65902;51.452;7.198;2023-01-15T20:04:22;10.60;;;9.90;;
76962;SDS011;65902;51.452;7.198;2023-01-15T20:05:29;10.10;;;8.25;;
76962;SDS011;65902;51.452;7.198;2023-01-15T20:06:30;9.18;;;8.38;;
76962;SDS011;65902;51.452;7.198;2023-01-15T20:07:31;14.35;;;13.27;;
76962;SDS011;65902;51.452;7.198;2023-01-15T20:08:32;7.03;;;6.35;;
76962;SDS011;65902;51.452;7.198;2023-01-15T20:09:38;9.70;;;9.13;;